Rosemary-2 — TC6650 — position and weather

sailwx.info

Track history (hours):
 
Tides and Currents Weather Stations Pressure Air Temp Water Temp Dewpoint Dewpoint Depression Visibility Wind Speed Wind Dir Waves Ship Positions

Rosemary-2

Last reported at 2017-Sep-21 10:22 UTC. Time now 2017-Sep-21 10:43 UTC.
Position N 36°32' E 030°34'.

Length 25 m.

Type: Passenger vessel. MMSI: 271041515.

Date/timePositionNaut miles runAvg speedWind from/ knotsBaromVisibWave heightAir tempDewpointWater temp
2017-Sep-21 10:22N 36°32' E 030°34'0 0.1
2017-Sep-21 08:14N 36°32' E 030°34'2 7.3
2017-Sep-21 07:59N 36°33' E 030°35'3 5.9
2017-Sep-21 07:30N 36°36' E 030°35'0 0.2
2017-Sep-21 06:44N 36°36' E 030°34'0 0.0
2017-Sep-21 06:27N 36°36' E 030°34'0 0.0
2017-Sep-21 05:19N 36°36' E 030°34'0 0.0
2017-Sep-21 04:49N 36°36' E 030°34'0 0.0
2017-Sep-21 04:25N 36°36' E 030°34'0 0.0
2017-Sep-21 01:01N 36°36' E 030°34'0 0.1
2017-Sep-21 00:55N 36°36' E 030°34'0 0.0
2017-Sep-20 23:07N 36°36' E 030°34'0 0.0
2017-Sep-20 22:58N 36°36' E 030°34'0 0.0
2017-Sep-20 22:25N 36°36' E 030°34'0 0.0
2017-Sep-20 20:57N 36°36' E 030°34'0 0.0
2017-Sep-20 19:14N 36°36' E 030°34'  
2017-Sep-14 14:47N 36°36' E 030°34'0 0.0
2017-Sep-14 14:17N 36°36' E 030°34'0 0.0
2017-Sep-14 13:53N 36°36' E 030°34'0 0.0
2017-Sep-14 13:30N 36°36' E 030°34'1 1.7
2017-Sep-14 12:49N 36°35' E 030°36'1 0.9
2017-Sep-14 11:50N 36°35' E 030°35'2 5.2
2017-Sep-14 11:24N 36°33' E 030°34'1 0.6
2017-Sep-14 10:29N 36°32' E 030°34'0 0.1
2017-Sep-14 08:15N 36°32' E 030°34'4 6.6
2017-Sep-14 07:36N 36°36' E 030°35'0 0.0
2017-Sep-14 03:23N 36°36' E 030°34'0 0.0
2017-Sep-14 02:44N 36°36' E 030°34'0 0.0
2017-Sep-14 02:17N 36°36' E 030°34'0 0.0
2017-Sep-14 00:51N 36°36' E 030°34'0 0.0
2017-Sep-14 00:26N 36°36' E 030°34'0 0.0
2017-Sep-13 23:52N 36°36' E 030°34'0 0.0
2017-Sep-13 13:20N 36°36' E 030°34'0 0.8
2017-Sep-13 12:58N 36°36' E 030°35'4 1.7
2017-Sep-13 10:26N 36°32' E 030°34'4 1.4
2017-Sep-13 07:23N 36°36' E 030°36'1 0.3
2017-Sep-13 03:44N 36°36' E 030°34'0 0.0
2017-Sep-13 03:30N 36°36' E 030°34'0 0.0
2017-Sep-13 03:00N 36°36' E 030°34'0 0.0
2017-Sep-13 02:30N 36°36' E 030°34'0 0.0
2017-Sep-13 02:00N 36°36' E 030°34'0 0.0
2017-Sep-13 01:13N 36°36' E 030°34'0 0.0
2017-Sep-13 00:42N 36°36' E 030°34'0 0.1
2017-Sep-13 00:30N 36°36' E 030°34'0 0.0
2017-Sep-12 23:33N 36°36' E 030°34'0 0.0
2017-Sep-12 20:51N 36°36' E 030°34'0 0.1
2017-Sep-12 20:28N 36°36' E 030°34'0 0.0
2017-Sep-12 19:59N 36°36' E 030°34'0 0.0
2017-Sep-12 19:23N 36°36' E 030°34'0 0.0
2017-Sep-12 18:50N 36°36' E 030°34'0 0.0
2017-Sep-12 17:08N 36°36' E 030°34'0 0.0
2017-Sep-12 16:56N 36°36' E 030°34'0 0.0
2017-Sep-12 06:41N 36°36' E 030°34'0 0.0
2017-Sep-12 05:44N 36°36' E 030°34'0 0.0
2017-Sep-12 03:52N 36°36' E 030°34'0 0.0
2017-Sep-12 03:28N 36°36' E 030°34'0 0.0
2017-Sep-12 02:58N 36°36' E 030°34'0 0.0
2017-Sep-12 02:28N 36°36' E 030°34'0 0.0
2017-Sep-12 02:00N 36°36' E 030°34'0 0.0
2017-Sep-12 01:30N 36°36' E 030°34'0 0.0
2017-Sep-12 01:00N 36°36' E 030°34'0 0.0
2017-Sep-12 00:30N 36°36' E 030°34'0 0.0
2017-Sep-11 23:38N 36°36' E 030°34'0 0.0
2017-Sep-11 23:24N 36°36' E 030°34'0 0.0
2017-Sep-11 22:37N 36°36' E 030°34'0 0.0
2017-Sep-11 20:42N 36°36' E 030°34'0 0.0
2017-Sep-11 20:12N 36°36' E 030°34'0 0.0
2017-Sep-11 19:57N 36°36' E 030°34'0 0.0
2017-Sep-11 19:29N 36°36' E 030°34'0 0.0
2017-Sep-11 18:46N 36°36' E 030°34'0 0.0
2017-Sep-11 18:27N 36°36' E 030°34'0 0.0
2017-Sep-11 18:00N 36°36' E 030°34'4 0.6
2017-Sep-11 10:26N 36°32' E 030°34'  
Track history (hours):
 
Tides and Currents Weather Stations Pressure Air Temp Water Temp Dewpoint Dewpoint Depression Visibility Wind Speed Wind Dir Waves Ship Positions

Rosemary-2

Last reported at 2017-Sep-21 10:22 UTC. Time now 2017-Sep-21 10:43 UTC.
Position N 36°32' E 030°34'.

Length 25 m.

Type: Passenger vessel. MMSI: 271041515.

Date/timePositionNaut miles runAvg speedWind from/ knotsBaromVisibWave heightAir tempDewpointWater temp
2017-Sep-21 10:22N 36°32' E 030°34'0 0.1
2017-Sep-21 08:14N 36°32' E 030°34'2 7.3
2017-Sep-21 07:59N 36°33' E 030°35'3 5.9
2017-Sep-21 07:30N 36°36' E 030°35'0 0.2
2017-Sep-21 06:44N 36°36' E 030°34'0 0.0
2017-Sep-21 06:27N 36°36' E 030°34'0 0.0
2017-Sep-21 05:19N 36°36' E 030°34'0 0.0
2017-Sep-21 04:49N 36°36' E 030°34'0 0.0
2017-Sep-21 04:25N 36°36' E 030°34'0 0.0
2017-Sep-21 01:01N 36°36' E 030°34'0 0.1
2017-Sep-21 00:55N 36°36' E 030°34'0 0.0
2017-Sep-20 23:07N 36°36' E 030°34'0 0.0
2017-Sep-20 22:58N 36°36' E 030°34'0 0.0
2017-Sep-20 22:25N 36°36' E 030°34'0 0.0
2017-Sep-20 20:57N 36°36' E 030°34'0 0.0
2017-Sep-20 19:14N 36°36' E 030°34'  
2017-Sep-14 14:47N 36°36' E 030°34'0 0.0
2017-Sep-14 14:17N 36°36' E 030°34'0 0.0
2017-Sep-14 13:53N 36°36' E 030°34'0 0.0
2017-Sep-14 13:30N 36°36' E 030°34'1 1.7
2017-Sep-14 12:49N 36°35' E 030°36'1 0.9
2017-Sep-14 11:50N 36°35' E 030°35'2 5.2
2017-Sep-14 11:24N 36°33' E 030°34'1 0.6
2017-Sep-14 10:29N 36°32' E 030°34'0 0.1
2017-Sep-14 08:15N 36°32' E 030°34'4 6.6
2017-Sep-14 07:36N 36°36' E 030°35'0 0.0
2017-Sep-14 03:23N 36°36' E 030°34'0 0.0
2017-Sep-14 02:44N 36°36' E 030°34'0 0.0
2017-Sep-14 02:17N 36°36' E 030°34'0 0.0
2017-Sep-14 00:51N 36°36' E 030°34'0 0.0
2017-Sep-14 00:26N 36°36' E 030°34'0 0.0
2017-Sep-13 23:52N 36°36' E 030°34'0 0.0
2017-Sep-13 13:20N 36°36' E 030°34'0 0.8
2017-Sep-13 12:58N 36°36' E 030°35'4 1.7
2017-Sep-13 10:26N 36°32' E 030°34'4 1.4
2017-Sep-13 07:23N 36°36' E 030°36'1 0.3
2017-Sep-13 03:44N 36°36' E 030°34'0 0.0
2017-Sep-13 03:30N 36°36' E 030°34'0 0.0
2017-Sep-13 03:00N 36°36' E 030°34'0 0.0
2017-Sep-13 02:30N 36°36' E 030°34'0 0.0
2017-Sep-13 02:00N 36°36' E 030°34'0 0.0
2017-Sep-13 01:13N 36°36' E 030°34'0 0.0
2017-Sep-13 00:42N 36°36' E 030°34'0 0.1
2017-Sep-13 00:30N 36°36' E 030°34'0 0.0
2017-Sep-12 23:33N 36°36' E 030°34'0 0.0
2017-Sep-12 20:51N 36°36' E 030°34'0 0.1
2017-Sep-12 20:28N 36°36' E 030°34'0 0.0
2017-Sep-12 19:59N 36°36' E 030°34'0 0.0
2017-Sep-12 19:23N 36°36' E 030°34'0 0.0
2017-Sep-12 18:50N 36°36' E 030°34'0 0.0
2017-Sep-12 17:08N 36°36' E 030°34'0 0.0
2017-Sep-12 16:56N 36°36' E 030°34'0 0.0
2017-Sep-12 06:41N 36°36' E 030°34'0 0.0
2017-Sep-12 05:44N 36°36' E 030°34'0 0.0
2017-Sep-12 03:52N 36°36' E 030°34'0 0.0
2017-Sep-12 03:28N 36°36' E 030°34'0 0.0
2017-Sep-12 02:58N 36°36' E 030°34'0 0.0
2017-Sep-12 02:28N 36°36' E 030°34'0 0.0
2017-Sep-12 02:00N 36°36' E 030°34'0 0.0
2017-Sep-12 01:30N 36°36' E 030°34'0 0.0
2017-Sep-12 01:00N 36°36' E 030°34'0 0.0
2017-Sep-12 00:30N 36°36' E 030°34'0 0.0
2017-Sep-11 23:38N 36°36' E 030°34'0 0.0
2017-Sep-11 23:24N 36°36' E 030°34'0 0.0
2017-Sep-11 22:37N 36°36' E 030°34'0 0.0
2017-Sep-11 20:42N 36°36' E 030°34'0 0.0
2017-Sep-11 20:12N 36°36' E 030°34'0 0.0
2017-Sep-11 19:57N 36°36' E 030°34'0 0.0
2017-Sep-11 19:29N 36°36' E 030°34'0 0.0
2017-Sep-11 18:46N 36°36' E 030°34'0 0.0
2017-Sep-11 18:27N 36°36' E 030°34'0 0.0
2017-Sep-11 18:00N 36°36' E 030°34'4 0.6
2017-Sep-11 10:26N 36°32' E 030°34'  

Dump ship's entire track history